sensor_id;sensor_type;location;lat;lon;timestamp;pressure;altitude;pressure_sealevel;temperature;humidity
43814;BME280;29669;55.706;37.656;2023-02-10T00:01:37;101049.81;;;0.32;nan
43814;BME280;29669;55.706;37.656;2023-02-10T00:04:05;101042.28;;;0.29;nan
43814;BME280;29669;55.706;37.656;2023-02-10T00:06:33;101050.97;;;0.25;nan
43814;BME280;29669;55.706;37.656;2023-02-10T00:09:02;101043.53;;;0.21;nan
43814;BME280;29669;55.706;37.656;2023-02-10T00:11:30;101035.09;;;0.19;nan
43814;BME280;29669;55.706;37.656;2023-02-10T00:14:17;101034.13;;;0.21;nan
43814;BME280;29669;55.706;37.656;2023-02-10T00:16:47;101021.31;;;0.23;nan
43814;BME280;29669;55.706;37.656;2023-02-10T00:19:16;101017.06;;;0.22;nan
43814;BME280;29669;55.706;37.656;2023-02-10T00:21:44;101028.19;;;0.21;nan
43814;BME280;29669;55.706;37.656;2023-02-10T00:24:11;101012.22;;;0.16;nan
43814;BME280;29669;55.706;37.656;2023-02-10T00:26:39;101011.34;;;0.17;nan
43814;BME280;29669;55.706;37.656;2023-02-10T00:29:07;100997.06;;;0.13;nan
43814;BME280;29669;55.706;37.656;2023-02-10T00:31:35;101002.03;;;0.16;nan
43814;BME280;29669;55.706;37.656;2023-02-10T00:34:03;100997.81;;;0.15;nan
43814;BME280;29669;55.706;37.656;2023-02-10T00:36:31;101002.66;;;0.21;nan
43814;BME280;29669;55.706;37.656;2023-02-10T00:38:59;100995.78;;;0.23;nan
43814;BME280;29669;55.706;37.656;2023-02-10T00:41:27;100996.56;;;0.23;nan
43814;BME280;29669;55.706;37.656;2023-02-10T00:43:54;100984.81;;;0.21;nan
43814;BME280;29669;55.706;37.656;2023-02-10T00:46:23;100983.06;;;0.21;nan
43814;BME280;29669;55.706;37.656;2023-02-10T00:48:51;100980.84;;;0.14;nan
43814;BME280;29669;55.706;37.656;2023-02-10T00:51:19;100979.38;;;0.08;nan
43814;BME280;29669;55.706;37.656;2023-02-10T00:53:48;100975.13;;;0.09;nan
43814;BME280;29669;55.706;37.656;2023-02-10T00:56:19;100974.22;;;0.10;nan
43814;BME280;29669;55.706;37.656;2023-02-10T00:58:48;100972.56;;;0.09;nan
43814;BME280;29669;55.706;37.656;2023-02-10T01:01:16;100969.94;;;0.10;nan
43814;BME280;29669;55.706;37.656;2023-02-10T01:03:43;100957.41;;;0.06;nan
43814;BME280;29669;55.706;37.656;2023-02-10T01:06:13;100953.09;;;0.06;nan
43814;BME280;29669;55.706;37.656;2023-02-10T01:08:44;100949.78;;;0.04;nan
43814;BME280;29669;55.706;37.656;2023-02-10T01:11:12;100938.13;;;-0.02;nan
43814;BME280;29669;55.706;37.656;2023-02-10T01:13:41;100934.69;;;-0.01;nan
43814;BME280;29669;55.706;37.656;2023-02-10T01:16:13;100932.25;;;-0.04;nan
43814;BME280;29669;55.706;37.656;2023-02-10T01:18:44;100920.53;;;-0.08;nan
43814;BME280;29669;55.706;37.656;2023-02-10T01:21:17;100933.16;;;-0.05;nan
43814;BME280;29669;55.706;37.656;2023-02-10T01:23:46;100912.06;;;-0.08;nan
43814;BME280;29669;55.706;37.656;2023-02-10T01:26:15;100919.72;;;-0.08;nan
43814;BME280;29669;55.706;37.656;2023-02-10T01:28:43;100918.81;;;-0.07;nan
43814;BME280;29669;55.706;37.656;2023-02-10T01:31:19;100916.19;;;-0.06;nan
43814;BME280;29669;55.706;37.656;2023-02-10T01:33:51;100906.31;;;-0.13;nan
43814;BME280;29669;55.706;37.656;2023-02-10T01:36:22;100912.13;;;-0.10;nan
43814;BME280;29669;55.706;37.656;2023-02-10T01:38:51;100907.16;;;-0.13;nan
43814;BME280;29669;55.706;37.656;2023-02-10T01:41:21;100900.66;;;-0.20;nan
43814;BME280;29669;55.706;37.656;2023-02-10T01:43:55;100896.41;;;-0.19;nan
43814;BME280;29669;55.706;37.656;2023-02-10T01:46:25;100903.41;;;-0.24;nan
43814;BME280;29669;55.706;37.656;2023-02-10T01:48:56;100897.69;;;-0.29;nan
43814;BME280;29669;55.706;37.656;2023-02-10T01:51:33;100889.78;;;-0.23;nan
43814;BME280;29669;55.706;37.656;2023-02-10T01:54:03;100890.47;;;-0.20;nan
43814;BME280;29669;55.706;37.656;2023-02-10T01:56:32;100883.84;;;-0.24;nan
43814;BME280;29669;55.706;37.656;2023-02-10T01:59:00;100894.88;;;-0.23;nan
43814;BME280;29669;55.706;37.656;2023-02-10T02:01:29;100891.56;;;-0.25;nan
43814;BME280;29669;55.706;37.656;2023-02-10T02:04:01;100888.94;;;-0.24;nan
43814;BME280;29669;55.706;37.656;2023-02-10T02:06:31;100892.00;;;-0.16;nan
43814;BME280;29669;55.706;37.656;2023-02-10T02:08:59;100879.00;;;-0.11;nan
43814;BME280;29669;55.706;37.656;2023-02-10T02:11:57;100882.25;;;-0.08;nan
43814;BME280;29669;55.706;37.656;2023-02-10T02:14:42;100873.22;;;-0.15;nan
43814;BME280;29669;55.706;37.656;2023-02-10T02:17:50;100869.09;;;-0.17;nan
43814;BME280;29669;55.706;37.656;2023-02-10T02:23:29;100862.75;;;-0.27;nan
43814;BME280;29669;55.706;37.656;2023-02-10T02:26:10;100876.53;;;-0.31;nan
43814;BME280;29669;55.706;37.656;2023-02-10T02:31:45;100855.44;;;-0.35;nan
43814;BME280;29669;55.706;37.656;2023-02-10T02:37:12;100836.81;;;-0.37;nan
43814;BME280;29669;55.706;37.656;2023-02-10T02:39:43;100826.53;;;-0.35;nan
43814;BME280;29669;55.706;37.656;2023-02-10T02:42:29;100830.69;;;-0.33;nan
43814;BME280;29669;55.706;37.656;2023-02-10T02:45:02;100827.22;;;-0.32;nan
43814;BME280;29669;55.706;37.656;2023-02-10T02:56:02;100803.25;;;-0.28;nan
43814;BME280;29669;55.706;37.656;2023-02-10T02:58:33;100802.63;;;-0.33;nan
43814;BME280;29669;55.706;37.656;2023-02-10T03:01:12;100792.56;;;-0.36;nan
43814;BME280;29669;55.706;37.656;2023-02-10T03:03:42;100786.56;;;-0.35;nan
43814;BME280;29669;55.706;37.656;2023-02-10T03:06:10;100797.38;;;-0.30;nan
43814;BME280;29669;55.706;37.656;2023-02-10T03:08:39;100793.31;;;-0.34;nan
43814;BME280;29669;55.706;37.656;2023-02-10T03:11:09;100783.09;;;-0.34;nan
43814;BME280;29669;55.706;37.656;2023-02-10T03:13:37;100787.31;;;-0.33;nan
43814;BME280;29669;55.706;37.656;2023-02-10T03:16:05;100772.91;;;-0.34;nan
43814;BME280;29669;55.706;37.656;2023-02-10T03:18:33;100769.19;;;-0.27;nan
43814;BME280;29669;55.706;37.656;2023-02-10T03:21:01;100768.56;;;-0.32;nan
43814;BME280;29669;55.706;37.656;2023-02-10T03:23:29;100773.59;;;-0.30;nan
43814;BME280;29669;55.706;37.656;2023-02-10T03:25:58;100760.03;;;-0.31;nan
43814;BME280;29669;55.706;37.656;2023-02-10T03:28:27;100761.47;;;-0.25;nan
43814;BME280;29669;55.706;37.656;2023-02-10T03:30:55;100740.38;;;-0.29;nan
43814;BME280;29669;55.706;37.656;2023-02-10T03:33:23;100733.69;;;-0.31;nan
43814;BME280;29669;55.706;37.656;2023-02-10T03:35:52;100741.41;;;-0.33;nan
43814;BME280;29669;55.706;37.656;2023-02-10T03:38:21;100728.03;;;-0.38;nan
43814;BME280;29669;55.706;37.656;2023-02-10T03:40:49;100730.72;;;-0.41;nan
43814;BME280;29669;55.706;37.656;2023-02-10T03:43:18;100726.53;;;-0.42;nan
43814;BME280;29669;55.706;37.656;2023-02-10T03:45:47;100716.34;;;-0.42;nan
43814;BME280;29669;55.706;37.656;2023-02-10T03:48:16;100722.25;;;-0.41;nan
43814;BME280;29669;55.706;37.656;2023-02-10T03:50:44;100718.25;;;-0.47;nan
43814;BME280;29669;55.706;37.656;2023-02-10T03:53:12;100695.38;;;-0.48;nan
43814;BME280;29669;55.706;37.656;2023-02-10T03:55:40;100692.75;;;-0.47;nan
43814;BME280;29669;55.706;37.656;2023-02-10T03:58:08;100691.72;;;-0.43;nan
43814;BME280;29669;55.706;37.656;2023-02-10T04:00:35;100687.38;;;-0.41;nan
43814;BME280;29669;55.706;37.656;2023-02-10T04:03:03;100677.03;;;-0.38;nan
43814;BME280;29669;55.706;37.656;2023-02-10T04:05:31;100681.03;;;-0.32;nan
43814;BME280;29669;55.706;37.656;2023-02-10T04:07:59;100674.25;;;-0.33;nan
43814;BME280;29669;55.706;37.656;2023-02-10T04:10:27;100677.56;;;-0.31;nan
43814;BME280;29669;55.706;37.656;2023-02-10T04:12:55;100675.97;;;-0.34;nan
43814;BME280;29669;55.706;37.656;2023-02-10T04:15:22;100687.69;;;-0.30;nan
43814;BME280;29669;55.706;37.656;2023-02-10T04:17:50;100672.19;;;-0.25;nan
43814;BME280;29669;55.706;37.656;2023-02-10T04:20:17;100678.13;;;-0.25;nan
43814;BME280;29669;55.706;37.656;2023-02-10T04:22:45;100673.81;;;-0.24;nan
43814;BME280;29669;55.706;37.656;2023-02-10T04:25:12;100673.03;;;-0.25;nan
43814;BME280;29669;55.706;37.656;2023-02-10T04:27:40;100667.09;;;-0.25;nan
43814;BME280;29669;55.706;37.656;2023-02-10T04:30:08;100669.72;;;-0.27;nan
43814;BME280;29669;55.706;37.656;2023-02-10T04:32:36;100655.38;;;-0.29;nan
43814;BME280;29669;55.706;37.656;2023-02-10T04:35:06;100652.81;;;-0.29;nan
43814;BME280;29669;55.706;37.656;2023-02-10T04:37:34;100658.28;;;-0.37;nan
43814;BME280;29669;55.706;37.656;2023-02-10T04:40:03;100645.06;;;-0.45;nan
43814;BME280;29669;55.706;37.656;2023-02-10T04:42:31;100634.88;;;-0.45;nan
43814;BME280;29669;55.706;37.656;2023-02-10T04:44:59;100638.31;;;-0.46;nan
43814;BME280;29669;55.706;37.656;2023-02-10T04:47:30;100651.06;;;-0.46;nan
43814;BME280;29669;55.706;37.656;2023-02-10T04:49:58;100644.31;;;-0.47;nan
43814;BME280;29669;55.706;37.656;2023-02-10T04:52:26;100645.06;;;-0.45;nan
43814;BME280;29669;55.706;37.656;2023-02-10T04:54:54;100644.03;;;-0.41;nan
43814;BME280;29669;55.706;37.656;2023-02-10T04:57:25;100639.97;;;-0.45;nan
43814;BME280;29669;55.706;37.656;2023-02-10T04:59:59;100640.94;;;-0.47;nan
43814;BME280;29669;55.706;37.656;2023-02-10T05:02:38;100640.78;;;-0.44;nan
43814;BME280;29669;55.706;37.656;2023-02-10T05:05:15;100641.69;;;-0.45;nan
43814;BME280;29669;55.706;37.656;2023-02-10T05:08:35;100654.59;;;-0.48;nan
43814;BME280;29669;55.706;37.656;2023-02-10T05:11:35;100645.31;;;-0.49;nan
43814;BME280;29669;55.706;37.656;2023-02-10T05:14:05;100638.25;;;-0.44;nan
43814;BME280;29669;55.706;37.656;2023-02-10T05:16:34;100634.88;;;-0.45;nan
43814;BME280;29669;55.706;37.656;2023-02-10T05:19:05;100626.75;;;-0.53;nan
43814;BME280;29669;55.706;37.656;2023-02-10T05:21:33;100625.03;;;-0.52;nan
43814;BME280;29669;55.706;37.656;2023-02-10T05:24:02;100631.72;;;-0.50;nan
43814;BME280;29669;55.706;37.656;2023-02-10T05:26:33;100622.56;;;-0.54;nan
43814;BME280;29669;55.706;37.656;2023-02-10T05:29:01;100612.56;;;-0.58;nan
43814;BME280;29669;55.706;37.656;2023-02-10T05:31:33;100609.25;;;-0.60;nan
43814;BME280;29669;55.706;37.656;2023-02-10T05:34:02;100619.53;;;-0.62;nan
43814;BME280;29669;55.706;37.656;2023-02-10T05:36:30;100615.19;;;-0.60;nan
43814;BME280;29669;55.706;37.656;2023-02-10T05:38:58;100605.28;;;-0.66;nan
43814;BME280;29669;55.706;37.656;2023-02-10T05:41:44;100603.63;;;-0.67;nan
43814;BME280;29669;55.706;37.656;2023-02-10T05:44:12;100592.59;;;-0.67;nan
43814;BME280;29669;55.706;37.656;2023-02-10T05:46:40;100602.03;;;-0.69;nan
43814;BME280;29669;55.706;37.656;2023-02-10T05:49:10;100600.34;;;-0.69;nan
43814;BME280;29669;55.706;37.656;2023-02-10T05:52:07;100584.81;;;-0.81;nan
43814;BME280;29669;55.706;37.656;2023-02-10T05:54:57;100589.34;;;-0.88;nan
43814;BME280;29669;55.706;37.656;2023-02-10T06:01:34;100583.84;;;-0.98;nan
43814;BME280;29669;55.706;37.656;2023-02-10T06:04:30;100589.63;;;-0.94;nan
43814;BME280;29669;55.706;37.656;2023-02-10T06:07:08;100581.50;;;-1.02;nan
43814;BME280;29669;55.706;37.656;2023-02-10T06:09:59;100571.88;;;-1.14;nan
43814;BME280;29669;55.706;37.656;2023-02-10T06:12:57;100550.69;;;-1.33;nan
43814;BME280;29669;55.706;37.656;2023-02-10T06:15:50;100560.09;;;-1.35;nan
43814;BME280;29669;55.706;37.656;2023-02-10T06:19:12;100564.53;;;-1.39;nan
43814;BME280;29669;55.706;37.656;2023-02-10T06:22:12;100559.97;;;-1.51;nan
43814;BME280;29669;55.706;37.656;2023-02-10T06:25:30;100553.16;;;-1.50;nan
43814;BME280;29669;55.706;37.656;2023-02-10T06:28:27;100541.19;;;-1.48;nan
43814;BME280;29669;55.706;37.656;2023-02-10T06:31:07;100523.56;;;-1.53;nan
43814;BME280;29669;55.706;37.656;2023-02-10T06:33:35;100525.06;;;-1.49;nan
43814;BME280;29669;55.706;37.656;2023-02-10T06:36:04;100516.56;;;-1.48;nan
43814;BME280;29669;55.706;37.656;2023-02-10T06:38:33;100522.63;;;-1.50;nan
43814;BME280;29669;55.706;37.656;2023-02-10T06:41:02;100525.22;;;-1.52;nan
43814;BME280;29669;55.706;37.656;2023-02-10T06:43:31;100525.75;;;-1.45;nan
43814;BME280;29669;55.706;37.656;2023-02-10T06:45:59;100523.22;;;-1.45;nan
43814;BME280;29669;55.706;37.656;2023-02-10T06:48:27;100516.16;;;-1.39;nan
43814;BME280;29669;55.706;37.656;2023-02-10T06:50:55;100499.59;;;-1.30;nan
43814;BME280;29669;55.706;37.656;2023-02-10T06:53:23;100486.47;;;-1.21;nan
43814;BME280;29669;55.706;37.656;2023-02-10T06:55:55;100463.78;;;-1.09;nan
43814;BME280;29669;55.706;37.656;2023-02-10T06:58:23;100447.31;;;-1.02;nan
43814;BME280;29669;55.706;37.656;2023-02-10T07:00:51;100435.41;;;-1.01;nan
43814;BME280;29669;55.706;37.656;2023-02-10T07:03:18;100431.19;;;-1.02;nan
43814;BME280;29669;55.706;37.656;2023-02-10T07:05:46;100455.91;;;-1.04;nan
43814;BME280;29669;55.706;37.656;2023-02-10T07:08:15;100450.75;;;-1.03;nan
43814;BME280;29669;55.706;37.656;2023-02-10T07:10:42;100430.13;;;-0.98;nan
43814;BME280;29669;55.706;37.656;2023-02-10T07:13:10;100419.66;;;-0.92;nan
43814;BME280;29669;55.706;37.656;2023-02-10T07:15:38;100406.09;;;-0.93;nan
43814;BME280;29669;55.706;37.656;2023-02-10T07:18:08;100397.47;;;-0.90;nan
43814;BME280;29669;55.706;37.656;2023-02-10T07:20:36;100395.22;;;-0.96;nan
43814;BME280;29669;55.706;37.656;2023-02-10T07:23:04;100395.97;;;-0.94;nan
43814;BME280;29669;55.706;37.656;2023-02-10T07:25:32;100394.34;;;-0.95;nan
43814;BME280;29669;55.706;37.656;2023-02-10T07:28:00;100379.84;;;-0.95;nan
43814;BME280;29669;55.706;37.656;2023-02-10T07:30:28;100395.75;;;-0.89;nan
43814;BME280;29669;55.706;37.656;2023-02-10T07:32:56;100400.97;;;-0.75;nan
43814;BME280;29669;55.706;37.656;2023-02-10T07:35:24;100382.69;;;-0.66;nan
43814;BME280;29669;55.706;37.656;2023-02-10T07:37:52;100380.44;;;-0.55;nan
43814;BME280;29669;55.706;37.656;2023-02-10T07:40:20;100374.78;;;-0.45;nan
43814;BME280;29669;55.706;37.656;2023-02-10T07:42:49;100362.72;;;-0.26;nan
43814;BME280;29669;55.706;37.656;2023-02-10T07:45:31;100371.38;;;-0.13;nan
43814;BME280;29669;55.706;37.656;2023-02-10T07:47:59;100353.84;;;0.13;nan
43814;BME280;29669;55.706;37.656;2023-02-10T07:50:27;100365.13;;;0.40;nan
43814;BME280;29669;55.706;37.656;2023-02-10T07:52:58;100361.75;;;0.69;nan
43814;BME280;29669;55.706;37.656;2023-02-10T07:55:26;100348.31;;;0.95;nan
43814;BME280;29669;55.706;37.656;2023-02-10T07:57:54;100322.97;;;1.20;nan
43814;BME280;29669;55.706;37.656;2023-02-10T08:00:22;100323.16;;;1.31;nan
43814;BME280;29669;55.706;37.656;2023-02-10T08:02:50;100341.53;;;1.38;nan
43814;BME280;29669;55.706;37.656;2023-02-10T08:05:18;100337.06;;;1.41;nan
43814;BME280;29669;55.706;37.656;2023-02-10T08:07:46;100332.84;;;1.40;nan
43814;BME280;29669;55.706;37.656;2023-02-10T08:10:14;100341.25;;;1.28;nan
43814;BME280;29669;55.706;37.656;2023-02-10T08:12:43;100335.22;;;1.15;nan
43814;BME280;29669;55.706;37.656;2023-02-10T08:15:14;100345.78;;;1.09;nan
43814;BME280;29669;55.706;37.656;2023-02-10T08:17:44;100345.16;;;1.06;nan
43814;BME280;29669;55.706;37.656;2023-02-10T08:20:12;100334.97;;;0.90;nan
43814;BME280;29669;55.706;37.656;2023-02-10T08:22:40;100331.94;;;0.83;nan
43814;BME280;29669;55.706;37.656;2023-02-10T08:25:07;100334.94;;;0.76;nan
43814;BME280;29669;55.706;37.656;2023-02-10T08:27:35;100326.81;;;0.69;nan
43814;BME280;29669;55.706;37.656;2023-02-10T08:30:04;100333.06;;;0.79;nan
43814;BME280;29669;55.706;37.656;2023-02-10T08:32:33;100342.31;;;0.96;nan
43814;BME280;29669;55.706;37.656;2023-02-10T08:35:01;100333.56;;;1.14;nan
43814;BME280;29669;55.706;37.656;2023-02-10T08:37:29;100324.25;;;1.27;nan
43814;BME280;29669;55.706;37.656;2023-02-10T08:39:57;100323.91;;;1.33;nan
43814;BME280;29669;55.706;37.656;2023-02-10T08:42:26;100320.59;;;1.31;nan
43814;BME280;29669;55.706;37.656;2023-02-10T08:44:54;100303.59;;;1.44;nan
43814;BME280;29669;55.706;37.656;2023-02-10T08:47:22;100293.75;;;1.52;nan
43814;BME280;29669;55.706;37.656;2023-02-10T08:49:50;100286.44;;;1.60;nan
43814;BME280;29669;55.706;37.656;2023-02-10T08:52:18;100285.59;;;1.74;nan
43814;BME280;29669;55.706;37.656;2023-02-10T08:54:46;100284.22;;;1.95;nan
43814;BME280;29669;55.706;37.656;2023-02-10T08:57:14;100276.75;;;2.19;nan
43814;BME280;29669;55.706;37.656;2023-02-10T08:59:41;100266.66;;;2.42;nan
43814;BME280;29669;55.706;37.656;2023-02-10T09:02:11;100257.91;;;2.59;nan
43814;BME280;29669;55.706;37.656;2023-02-10T09:04:46;100256.34;;;2.69;nan
43814;BME280;29669;55.706;37.656;2023-02-10T09:07:20;100242.13;;;2.77;nan
43814;BME280;29669;55.706;37.656;2023-02-10T09:09:50;100231.97;;;2.88;nan
43814;BME280;29669;55.706;37.656;2023-02-10T09:12:18;100229.63;;;2.98;nan
43814;BME280;29669;55.706;37.656;2023-02-10T09:14:46;100213.94;;;3.03;nan
43814;BME280;29669;55.706;37.656;2023-02-10T09:17:13;100227.47;;;3.05;nan
43814;BME280;29669;55.706;37.656;2023-02-10T09:19:41;100218.41;;;2.99;nan
43814;BME280;29669;55.706;37.656;2023-02-10T09:22:09;100206.25;;;3.03;nan
43814;BME280;29669;55.706;37.656;2023-02-10T09:24:37;100202.50;;;3.19;nan
43814;BME280;29669;55.706;37.656;2023-02-10T09:27:05;100190.19;;;3.24;nan
43814;BME280;29669;55.706;37.656;2023-02-10T09:29:33;100190.47;;;3.32;nan
43814;BME280;29669;55.706;37.656;2023-02-10T09:32:01;100197.09;;;3.47;nan
43814;BME280;29669;55.706;37.656;2023-02-10T09:34:29;100178.13;;;3.50;nan
43814;BME280;29669;55.706;37.656;2023-02-10T09:36:57;100166.53;;;3.44;nan
43814;BME280;29669;55.706;37.656;2023-02-10T09:39:29;100143.34;;;3.33;nan
43814;BME280;29669;55.706;37.656;2023-02-10T09:42:56;100150.56;;;3.28;nan
43814;BME280;29669;55.706;37.656;2023-02-10T09:45:10;100135.00;;;3.19;nan
43814;BME280;29669;55.706;37.656;2023-02-10T09:47:48;100134.56;;;3.25;nan
43814;BME280;29669;55.706;37.656;2023-02-10T09:53:38;100127.19;;;3.20;nan
43814;BME280;29669;55.706;37.656;2023-02-10T09:56:14;100140.00;;;3.33;nan
43814;BME280;29669;55.706;37.656;2023-02-10T09:58:54;100135.13;;;3.41;nan
43814;BME280;29669;55.706;37.656;2023-02-10T10:01:36;100150.47;;;3.53;nan
43814;BME280;29669;55.706;37.656;2023-02-10T10:04:10;100156.38;;;3.66;nan
43814;BME280;29669;55.706;37.656;2023-02-10T10:06:43;100162.84;;;3.83;nan
43814;BME280;29669;55.706;37.656;2023-02-10T10:11:52;100168.53;;;3.99;nan
43814;BME280;29669;55.706;37.656;2023-02-10T10:14:25;100168.94;;;3.82;nan
43814;BME280;29669;55.706;37.656;2023-02-10T10:28:22;100131.84;;;3.62;nan
43814;BME280;29669;55.706;37.656;2023-02-10T10:31:27;100126.41;;;3.67;nan
43814;BME280;29669;55.706;37.656;2023-02-10T10:34:01;100104.75;;;3.58;nan
43814;BME280;29669;55.706;37.656;2023-02-10T10:42:03;100093.84;;;3.20;nan
43814;BME280;29669;55.706;37.656;2023-02-10T10:44:38;100089.66;;;3.19;nan
43814;BME280;29669;55.706;37.656;2023-02-10T10:47:36;100087.91;;;3.20;nan
43814;BME280;29669;55.706;37.656;2023-02-10T10:50:10;100081.91;;;3.08;nan
43814;BME280;29669;55.706;37.656;2023-02-10T10:52:40;100080.19;;;2.96;nan
43814;BME280;29669;55.706;37.656;2023-02-10T10:55:16;100076.72;;;2.97;nan
43814;BME280;29669;55.706;37.656;2023-02-10T10:57:45;100076.38;;;3.02;nan
43814;BME280;29669;55.706;37.656;2023-02-10T11:00:20;100072.00;;;3.15;nan
43814;BME280;29669;55.706;37.656;2023-02-10T11:02:59;100064.88;;;3.07;nan
43814;BME280;29669;55.706;37.656;2023-02-10T11:05:35;100052.75;;;3.09;nan
43814;BME280;29669;55.706;37.656;2023-02-10T11:08:05;100061.22;;;2.99;nan
43814;BME280;29669;55.706;37.656;2023-02-10T11:10:49;100056.03;;;2.88;nan
43814;BME280;29669;55.706;37.656;2023-02-10T11:13:22;100058.47;;;2.89;nan
43814;BME280;29669;55.706;37.656;2023-02-10T11:15:59;100043.28;;;2.99;nan
43814;BME280;29669;55.706;37.656;2023-02-10T11:18:28;100036.94;;;3.15;nan
43814;BME280;29669;55.706;37.656;2023-02-10T11:21:02;100028.69;;;3.23;nan
43814;BME280;29669;55.706;37.656;2023-02-10T11:23:30;100028.16;;;3.30;nan
43814;BME280;29669;55.706;37.656;2023-02-10T11:26:05;100030.94;;;3.27;nan
43814;BME280;29669;55.706;37.656;2023-02-10T11:28:35;100014.94;;;3.24;nan
43814;BME280;29669;55.706;37.656;2023-02-10T11:31:06;100025.16;;;3.13;nan
43814;BME280;29669;55.706;37.656;2023-02-10T11:33:40;100019.53;;;3.08;nan
43814;BME280;29669;55.706;37.656;2023-02-10T11:36:09;100019.75;;;3.05;nan
43814;BME280;29669;55.706;37.656;2023-02-10T11:38:40;100009.94;;;2.99;nan
43814;BME280;29669;55.706;37.656;2023-02-10T11:41:09;99998.44;;;3.04;nan
43814;BME280;29669;55.706;37.656;2023-02-10T11:43:41;99998.00;;;3.10;nan
43814;BME280;29669;55.706;37.656;2023-02-10T11:46:20;100001.03;;;3.15;nan
43814;BME280;29669;55.706;37.656;2023-02-10T11:48:53;99998.75;;;3.23;nan
43814;BME280;29669;55.706;37.656;2023-02-10T11:51:21;100003.38;;;3.18;nan
43814;BME280;29669;55.706;37.656;2023-02-10T11:53:49;99989.75;;;3.18;nan
43814;BME280;29669;55.706;37.656;2023-02-10T11:56:42;99978.53;;;3.19;nan
43814;BME280;29669;55.706;37.656;2023-02-10T12:10:48;99960.69;;;3.06;nan
43814;BME280;29669;55.706;37.656;2023-02-10T12:16:12;99957.69;;;2.88;nan
43814;BME280;29669;55.706;37.656;2023-02-10T12:19:08;99951.19;;;2.72;nan
43814;BME280;29669;55.706;37.656;2023-02-10T12:27:30;99937.44;;;2.49;nan
43814;BME280;29669;55.706;37.656;2023-02-10T12:33:16;99910.88;;;2.50;nan
43814;BME280;29669;55.706;37.656;2023-02-10T12:52:23;99910.53;;;2.08;nan
43814;BME280;29669;55.706;37.656;2023-02-10T12:57:46;99922.72;;;2.04;nan
43814;BME280;29669;55.706;37.656;2023-02-10T13:00:20;99929.25;;;1.96;nan
43814;BME280;29669;55.706;37.656;2023-02-10T13:02:54;99937.34;;;1.89;nan
43814;BME280;29669;55.706;37.656;2023-02-10T13:05:30;99929.47;;;1.80;nan
43814;BME280;29669;55.706;37.656;2023-02-10T13:08:02;99922.44;;;1.71;nan
43814;BME280;29669;55.706;37.656;2023-02-10T13:13:11;99887.84;;;1.65;nan
43814;BME280;29669;55.706;37.656;2023-02-10T13:15:45;99882.25;;;1.60;nan
43814;BME280;29669;55.706;37.656;2023-02-10T13:18:38;99884.97;;;1.57;nan
43814;BME280;29669;55.706;37.656;2023-02-10T13:21:13;99895.13;;;1.46;nan
43814;BME280;29669;55.706;37.656;2023-02-10T13:34:57;99877.34;;;1.32;nan
43814;BME280;29669;55.706;37.656;2023-02-10T13:39:59;99868.84;;;1.32;nan
43814;BME280;29669;55.706;37.656;2023-02-10T13:42:34;99877.53;;;1.29;nan
43814;BME280;29669;55.706;37.656;2023-02-10T13:45:15;99895.94;;;1.34;nan
43814;BME280;29669;55.706;37.656;2023-02-10T13:53:05;99904.31;;;1.24;nan
43814;BME280;29669;55.706;37.656;2023-02-10T14:06:48;99904.47;;;0.95;nan
43814;BME280;29669;55.706;37.656;2023-02-10T14:09:20;99906.75;;;1.00;nan
43814;BME280;29669;55.706;37.656;2023-02-10T14:11:50;99903.47;;;0.98;nan
43814;BME280;29669;55.706;37.656;2023-02-10T14:14:34;99898.97;;;1.02;nan
43814;BME280;29669;55.706;37.656;2023-02-10T14:17:39;99883.75;;;1.00;nan
43814;BME280;29669;55.706;37.656;2023-02-10T14:20:14;99895.69;;;1.00;nan
43814;BME280;29669;55.706;37.656;2023-02-10T14:22:49;99890.06;;;0.94;nan
43814;BME280;29669;55.706;37.656;2023-02-10T14:25:31;99894.69;;;1.02;nan
43814;BME280;29669;55.706;37.656;2023-02-10T14:28:01;99881.81;;;1.04;nan
43814;BME280;29669;55.706;37.656;2023-02-10T14:30:39;99882.22;;;1.10;nan
43814;BME280;29669;55.706;37.656;2023-02-10T14:33:24;99888.16;;;1.11;nan
43814;BME280;29669;55.706;37.656;2023-02-10T14:35:55;99883.03;;;1.11;nan
43814;BME280;29669;55.706;37.656;2023-02-10T14:38:29;99870.88;;;1.14;nan
43814;BME280;29669;55.706;37.656;2023-02-10T14:40:58;99885.19;;;1.17;nan
43814;BME280;29669;55.706;37.656;2023-02-10T14:43:38;99885.81;;;1.20;nan
43814;BME280;29669;55.706;37.656;2023-02-10T14:46:07;99880.69;;;1.20;nan
43814;BME280;29669;55.706;37.656;2023-02-10T14:48:38;99877.31;;;1.20;nan
43814;BME280;29669;55.706;37.656;2023-02-10T14:51:16;99880.91;;;1.17;nan
43814;BME280;29669;55.706;37.656;2023-02-10T14:53:45;99871.91;;;1.12;nan
43814;BME280;29669;55.706;37.656;2023-02-10T14:56:22;99872.53;;;1.15;nan
43814;BME280;29669;55.706;37.656;2023-02-10T14:58:50;99882.75;;;1.15;nan
43814;BME280;29669;55.706;37.656;2023-02-10T15:01:25;99883.47;;;1.17;nan
43814;BME280;29669;55.706;37.656;2023-02-10T15:03:54;99881.63;;;1.19;nan
43814;BME280;29669;55.706;37.656;2023-02-10T15:06:27;99888.25;;;1.22;nan
43814;BME280;29669;55.706;37.656;2023-02-10T15:09:05;99883.25;;;1.20;nan
43814;BME280;29669;55.706;37.656;2023-02-10T15:11:39;99890.41;;;1.15;nan
43814;BME280;29669;55.706;37.656;2023-02-10T15:14:31;99888.03;;;1.12;nan
43814;BME280;29669;55.706;37.656;2023-02-10T15:17:04;99899.91;;;1.13;nan
43814;BME280;29669;55.706;37.656;2023-02-10T15:19:34;99900.63;;;1.15;nan
43814;BME280;29669;55.706;37.656;2023-02-10T15:22:03;99901.03;;;1.09;nan
43814;BME280;29669;55.706;37.656;2023-02-10T15:24:52;99907.78;;;1.10;nan
43814;BME280;29669;55.706;37.656;2023-02-10T15:27:22;99908.69;;;1.09;nan
43814;BME280;29669;55.706;37.656;2023-02-10T15:30:18;99905.53;;;1.06;nan
43814;BME280;29669;55.706;37.656;2023-02-10T15:32:49;99908.19;;;1.04;nan
43814;BME280;29669;55.706;37.656;2023-02-10T15:35:18;99907.25;;;1.05;nan
43814;BME280;29669;55.706;37.656;2023-02-10T15:37:58;99913.81;;;1.09;nan